createdAt,value
2019-04-23T00:01:02.942Z,0.00
2019-04-23T00:01:57.000Z,0.00
2019-04-23T00:02:56.292Z,0.00
2019-04-23T00:03:51.583Z,0.00
2019-04-23T00:04:47.961Z,0.00
2019-04-23T00:05:59.458Z,0.00
2019-04-23T00:07:04.043Z,0.00
2019-04-23T00:09:05.500Z,0.00
2019-04-23T00:09:59.776Z,0.00
2019-04-23T00:10:58.867Z,0.00
2019-04-23T00:11:51.727Z,0.00
2019-04-23T00:15:58.635Z,0.00
2019-04-23T00:16:59.686Z,0.00
2019-04-23T00:18:12.223Z,0.00
2019-04-23T00:19:03.081Z,0.00
2019-04-23T00:19:57.141Z,0.00
2019-04-23T00:21:00.738Z,0.00
2019-04-23T00:21:55.144Z,0.00
2019-04-23T00:24:07.624Z,0.00
2019-04-23T00:25:52.568Z,0.00
2019-04-23T00:26:53.126Z,0.00
2019-04-23T00:27:55.228Z,0.00
2019-04-23T00:29:01.043Z,0.00
2019-04-23T00:31:56.194Z,0.00
2019-04-23T00:32:59.194Z,0.00
2019-04-23T00:33:59.125Z,0.00
2019-04-23T00:34:54.737Z,0.00
2019-04-23T00:35:49.869Z,0.00
2019-04-23T00:36:57.893Z,0.00
2019-04-23T00:37:49.665Z,0.00
2019-04-23T00:38:50.142Z,0.00
2019-04-23T00:40:03.182Z,0.00
2019-04-23T00:40:54.029Z,0.00
2019-04-23T00:41:54.630Z,0.00
2019-04-23T00:43:09.015Z,0.00
2019-04-23T00:43:57.504Z,0.00
2019-04-23T00:44:54.309Z,0.00
2019-04-23T00:45:50.261Z,0.00
2019-04-23T00:47:11.944Z,0.00
2019-04-23T00:47:49.877Z,0.00
2019-04-23T00:49:03.658Z,0.00
2019-04-23T00:49:59.927Z,0.00
2019-04-23T00:50:57.449Z,0.00
2019-04-23T00:51:52.933Z,0.00
2019-04-23T00:52:50.682Z,0.00
2019-04-23T00:53:51.802Z,0.00
2019-04-23T00:54:59.376Z,0.00
2019-04-23T00:56:03.876Z,0.00
2019-04-23T00:56:54.537Z,0.00
2019-04-23T00:58:58.892Z,0.00
2019-04-23T01:00:03.468Z,0.00
2019-04-23T01:01:04.364Z,0.00
2019-04-23T01:02:52.856Z,0.00
2019-04-23T01:03:55.237Z,0.00
2019-04-23T01:04:59.677Z,0.00
2019-04-23T01:06:09.601Z,0.00
2019-04-23T01:06:52.304Z,0.00
2019-04-23T01:07:51.610Z,0.00
2019-04-23T01:08:51.768Z,0.00
2019-04-23T01:09:54.233Z,0.00
2019-04-23T01:10:56.496Z,0.00
2019-04-23T01:11:49.678Z,0.00
2019-04-23T01:12:51.671Z,0.00
2019-04-23T01:13:53.051Z,0.00
2019-04-23T01:14:56.018Z,0.00
2019-04-23T01:15:53.988Z,0.00
2019-04-23T01:16:55.024Z,0.00
2019-04-23T01:17:53.350Z,0.00
2019-04-23T01:18:54.442Z,0.00
2019-04-23T01:19:49.546Z,0.00
2019-04-23T01:20:53.005Z,0.00
2019-04-23T01:21:30.692Z,0.00
2019-04-23T01:22:29.544Z,0.00
2019-04-23T01:23:37.698Z,0.00
2019-04-23T01:24:34.457Z,0.00
2019-04-23T01:25:40.564Z,0.00
2019-04-23T01:27:11.925Z,0.00
2019-04-23T01:27:55.850Z,0.00
2019-04-23T01:28:55.599Z,0.00
2019-04-23T01:30:00.049Z,0.00
2019-04-23T01:31:03.250Z,0.00
2019-04-23T01:31:58.898Z,0.00
2019-04-23T01:32:54.570Z,0.00
2019-04-23T01:33:55.456Z,0.00
2019-04-23T01:35:06.922Z,0.00
2019-04-23T01:36:10.309Z,0.00
2019-04-23T01:36:56.124Z,0.00
2019-04-23T01:37:56.137Z,0.00
2019-04-23T01:39:14.308Z,0.00
2019-04-23T01:39:57.835Z,0.00
2019-04-23T01:40:57.744Z,0.00
2019-04-23T01:42:08.491Z,0.00
2019-04-23T01:43:10.902Z,0.00
2019-04-23T01:43:52.489Z,0.00
2019-04-23T01:45:01.411Z,0.00
2019-04-23T01:45:54.604Z,0.00
2019-04-23T01:46:54.527Z,0.00
2019-04-23T01:47:54.846Z,0.00
2019-04-23T01:48:58.220Z,0.00
2019-04-23T01:50:03.371Z,0.00
2019-04-23T01:50:57.527Z,0.00
2019-04-23T01:52:59.279Z,0.00
2019-04-23T01:54:13.794Z,0.00
2019-04-23T01:55:01.753Z,0.00
2019-04-23T01:56:01.278Z,0.00
2019-04-23T01:56:54.775Z,0.00
2019-04-23T01:58:10.786Z,0.00
2019-04-23T01:58:59.183Z,0.00
2019-04-23T02:00:03.392Z,0.00
2019-04-23T02:00:54.518Z,0.00
2019-04-23T02:02:01.419Z,0.00
2019-04-23T02:03:03.669Z,0.00
2019-04-23T02:05:02.947Z,0.00
2019-04-23T02:07:06.325Z,0.00
2019-04-23T02:07:58.712Z,0.00
2019-04-23T02:08:58.809Z,0.00
2019-04-23T02:10:08.298Z,0.00
2019-04-23T02:10:58.721Z,0.00
2019-04-23T02:11:59.064Z,0.00
2019-04-23T02:13:02.272Z,0.00
2019-04-23T02:13:55.644Z,0.00
2019-04-23T02:14:59.486Z,0.00
2019-04-23T02:15:53.819Z,0.00
2019-04-23T02:16:56.342Z,0.00
2019-04-23T02:18:03.986Z,0.00
2019-04-23T02:18:59.640Z,0.00
2019-04-23T02:20:01.653Z,0.00
2019-04-23T02:20:52.603Z,0.00
2019-04-23T02:22:12.935Z,0.00
2019-04-23T02:23:05.724Z,0.00
2019-04-23T02:23:54.800Z,0.00
2019-04-23T02:25:05.029Z,0.00
2019-04-23T02:25:55.520Z,0.00
2019-04-23T02:27:05.645Z,0.00
2019-04-23T02:28:04.780Z,0.00
2019-04-23T02:29:03.743Z,0.00
2019-04-23T02:30:12.521Z,0.00
2019-04-23T02:32:01.345Z,0.00
2019-04-23T02:33:10.463Z,0.00
2019-04-23T02:36:02.522Z,0.00
2019-04-23T02:37:24.397Z,0.00
2019-04-23T02:40:07.484Z,0.00
2019-04-23T02:44:21.777Z,0.00
2019-04-23T02:45:02.640Z,0.00
2019-04-23T02:48:14.568Z,0.00
2019-04-23T02:49:04.962Z,0.00
2019-04-23T02:50:24.929Z,0.00
2019-04-23T02:51:05.384Z,0.00
2019-04-23T02:53:05.164Z,0.00
2019-04-23T02:54:16.408Z,0.00
2019-04-23T02:55:07.981Z,0.00
2019-04-23T02:58:03.748Z,0.00
2019-04-23T03:02:15.551Z,0.00
2019-04-23T03:06:05.809Z,0.00
2019-04-23T03:09:04.459Z,0.00
2019-04-23T03:09:58.732Z,0.00
2019-04-23T03:12:09.822Z,0.00
2019-04-23T03:13:16.082Z,0.00
2019-04-23T03:14:00.340Z,0.00
2019-04-23T03:16:06.290Z,0.00
2019-04-23T03:18:21.130Z,0.00
2019-04-23T03:19:06.996Z,0.00
2019-04-23T03:20:08.015Z,0.00
2019-04-23T03:22:01.675Z,0.00
2019-04-23T03:23:22.862Z,0.00
2019-04-23T03:24:11.045Z,0.00
2019-04-23T03:25:10.651Z,0.00
2019-04-23T03:26:11.143Z,0.00
2019-04-23T03:27:56.070Z,0.00
2019-04-23T03:29:10.682Z,0.00
2019-04-23T03:30:12.127Z,0.00
2019-04-23T03:35:09.169Z,0.00
2019-04-23T03:38:51.499Z,0.00
2019-04-23T03:40:01.880Z,0.00
2019-04-23T03:41:08.809Z,0.00
2019-04-23T03:42:01.987Z,0.00
2019-04-23T03:45:07.710Z,0.00
2019-04-23T03:47:07.373Z,4.00
2019-04-23T03:50:53.369Z,4.00
2019-04-23T03:52:53.535Z,4.00
2019-04-23T03:55:06.256Z,4.00
2019-04-23T03:56:05.477Z,4.00
2019-04-23T03:58:07.608Z,8.00
2019-04-23T03:58:59.081Z,8.00
2019-04-23T04:02:10.657Z,12.00
2019-04-23T04:03:04.681Z,16.00
2019-04-23T04:06:05.282Z,28.00
2019-04-23T04:08:10.313Z,36.00
2019-04-23T04:09:07.208Z,44.00
2019-04-23T04:11:10.809Z,60.00
2019-04-23T04:12:05.489Z,68.00
2019-04-23T04:12:56.859Z,80.00
2019-04-23T04:14:18.288Z,92.00
2019-04-23T04:15:06.299Z,104.00
2019-04-23T04:16:00.776Z,120.00
2019-04-23T04:17:13.667Z,136.00
2019-04-23T04:18:13.935Z,148.00
2019-04-23T04:19:09.508Z,168.00
2019-04-23T04:20:10.910Z,184.00
2019-04-23T04:24:59.059Z,300.00
2019-04-23T04:27:19.513Z,356.00
2019-04-23T04:29:00.532Z,416.00
2019-04-23T04:30:00.993Z,452.00
2019-04-23T04:30:54.487Z,484.00
2019-04-23T04:32:00.720Z,516.00
2019-04-23T04:33:05.474Z,552.00
2019-04-23T04:34:10.740Z,592.00
2019-04-23T04:36:10.485Z,672.00
2019-04-23T04:37:32.099Z,712.00
2019-04-23T04:38:16.524Z,748.00
2019-04-23T04:40:18.107Z,836.00
2019-04-23T04:41:04.322Z,876.00
2019-04-23T04:42:04.587Z,924.00
2019-04-23T04:44:17.294Z,1004.00
2019-04-23T04:47:05.371Z,1136.00
2019-04-23T04:47:49.313Z,1180.00
2019-04-23T04:51:18.834Z,1320.00
2019-04-23T04:52:11.315Z,1368.00
2019-04-23T04:55:00.111Z,1512.00
2019-04-23T04:56:07.734Z,1560.00
2019-04-23T04:57:01.284Z,1604.00
2019-04-23T04:58:13.005Z,1648.00
2019-04-23T04:59:05.660Z,1692.00
2019-04-23T05:00:10.978Z,1736.00
2019-04-23T05:01:13.846Z,1772.00
2019-04-23T05:02:09.413Z,1812.00
2019-04-23T05:03:53.190Z,1884.00
2019-04-23T05:05:44.472Z,1916.00
2019-04-23T05:07:56.279Z,1972.00
2019-04-23T05:09:00.665Z,1968.00
2019-04-23T05:11:28.331Z,2012.00
2019-04-23T05:12:16.202Z,2060.00
2019-04-23T05:13:13.471Z,2108.00
2019-04-23T05:13:59.709Z,2160.00
2019-04-23T05:15:58.234Z,2268.00
2019-04-23T05:17:00.567Z,2328.00
2019-04-23T05:19:08.597Z,2404.00
2019-04-23T05:20:03.082Z,2436.00
2019-04-23T05:20:58.432Z,2480.00
2019-04-23T05:22:02.251Z,2532.00
2019-04-23T05:23:06.027Z,2592.00
2019-04-23T05:24:16.399Z,2660.00
2019-04-23T05:24:55.441Z,2724.00
2019-04-23T05:26:01.667Z,2796.00
2019-04-23T05:26:55.446Z,2868.00
2019-04-23T05:28:02.791Z,2948.00
2019-04-23T05:28:59.486Z,3024.00
2019-04-23T05:30:04.634Z,3116.00
2019-04-23T05:31:52.916Z,3292.00
2019-04-23T05:33:02.697Z,3376.00
2019-04-23T05:34:56.258Z,3556.00
2019-04-23T05:36:14.739Z,3640.00
2019-04-23T05:36:54.192Z,3732.00
2019-04-23T05:38:23.121Z,3824.00
2019-04-23T05:39:19.306Z,3928.00
2019-04-23T05:40:00.487Z,4032.00
2019-04-23T05:41:03.956Z,4148.00
2019-04-23T05:41:55.859Z,4280.00
2019-04-23T05:42:56.424Z,4404.00
2019-04-23T05:43:57.221Z,4516.00
2019-04-23T05:44:57.230Z,4612.00
2019-04-23T05:45:59.708Z,4704.00
2019-04-23T05:46:52.226Z,4780.00
2019-04-23T05:48:04.604Z,4860.00
2019-04-23T05:50:10.036Z,5080.00
2019-04-23T05:51:04.252Z,5176.00
2019-04-23T05:51:57.341Z,5268.00
2019-04-23T05:52:59.505Z,5364.00
2019-04-23T05:53:52.051Z,5452.00
2019-04-23T05:54:56.360Z,5528.00
2019-04-23T05:55:55.266Z,5588.00
2019-04-23T05:56:51.710Z,5676.00
2019-04-23T05:57:53.657Z,5760.00
2019-04-23T05:58:58.222Z,5832.00
2019-04-23T05:59:55.343Z,5892.00
2019-04-23T06:01:09.412Z,5952.00
2019-04-23T06:02:56.628Z,6064.00
2019-04-23T06:04:04.800Z,6116.00
2019-04-23T06:05:12.587Z,6156.00
2019-04-23T06:06:01.235Z,6212.00
2019-04-23T06:07:11.456Z,6272.00
2019-04-23T06:07:53.471Z,6312.00
2019-04-23T06:10:57.267Z,6472.00
2019-04-23T06:11:58.697Z,6484.00
2019-04-23T06:12:50.679Z,6508.00
2019-04-23T06:14:02.154Z,6564.00
2019-04-23T06:14:55.816Z,6636.00
2019-04-23T06:15:55.883Z,6696.00
2019-04-23T06:17:54.941Z,6888.00
2019-04-23T06:18:57.251Z,6944.00
2019-04-23T06:19:58.586Z,6992.00
2019-04-23T06:20:58.957Z,7032.00
2019-04-23T06:22:06.003Z,7072.00
2019-04-23T06:22:56.115Z,7072.00
2019-04-23T06:23:58.323Z,7104.00
2019-04-23T06:24:53.539Z,7160.00
2019-04-23T06:27:57.461Z,7172.00
2019-04-23T06:28:59.486Z,7180.00
2019-04-23T06:30:56.072Z,7188.00
2019-04-23T06:32:58.012Z,7264.00
2019-04-23T06:33:54.145Z,7280.00
2019-04-23T06:34:55.015Z,7284.00
2019-04-23T06:36:00.485Z,7284.00
2019-04-23T06:36:50.985Z,7316.00
2019-04-23T06:38:14.410Z,7348.00
2019-04-23T06:39:57.050Z,7448.00
2019-04-23T06:40:55.372Z,7492.00
2019-04-23T06:41:55.113Z,7560.00
2019-04-23T06:42:52.060Z,7612.00
2019-04-23T06:44:00.315Z,7636.00
2019-04-23T06:45:52.311Z,7676.00
2019-04-23T06:46:56.943Z,7720.00
2019-04-23T06:47:54.060Z,7756.00
2019-04-23T06:48:54.537Z,7796.00
2019-04-23T06:50:58.153Z,7892.00
2019-04-23T06:52:02.690Z,7932.00
2019-04-23T06:52:50.675Z,7948.00
2019-04-23T06:53:55.047Z,7980.00
2019-04-23T06:55:57.472Z,8048.00
2019-04-23T06:57:04.660Z,8080.00
2019-04-23T06:57:55.532Z,8112.00
2019-04-23T06:58:48.839Z,8116.00
2019-04-23T06:59:50.425Z,8112.00
2019-04-23T07:00:55.877Z,8120.00
2019-04-23T07:01:59.665Z,8132.00
2019-04-23T07:02:53.817Z,8140.00
2019-04-23T07:04:02.961Z,8164.00
2019-04-23T07:05:13.371Z,8172.00
2019-04-23T07:06:03.671Z,8188.00
2019-04-23T07:07:19.520Z,8216.00
2019-04-23T07:09:51.691Z,8316.00
2019-04-23T07:10:59.164Z,8356.00
2019-04-23T07:11:48.188Z,8400.00
2019-04-23T07:13:10.866Z,8440.00
2019-04-23T07:15:58.497Z,8560.00
2019-04-23T07:16:52.807Z,8604.00
2019-04-23T07:17:51.197Z,8652.00
2019-04-23T07:18:54.515Z,8704.00
2019-04-23T07:20:50.537Z,8792.00
2019-04-23T07:21:58.763Z,8840.00
2019-04-23T07:22:56.789Z,8892.00
2019-04-23T07:24:00.234Z,8940.00
2019-04-23T07:24:54.668Z,9004.00
2019-04-23T07:26:00.131Z,9052.00
2019-04-23T07:26:42.360Z,9108.00
2019-04-23T07:27:51.118Z,9172.00
2019-04-23T07:28:56.340Z,9228.00
2019-04-23T07:29:56.662Z,9292.00
2019-04-23T07:31:03.846Z,9360.00
2019-04-23T07:31:54.712Z,9428.00
2019-04-23T07:35:04.596Z,9648.00
2019-04-23T07:35:53.364Z,9724.00
2019-04-23T07:36:55.706Z,9804.00
2019-04-23T07:38:09.292Z,9880.00
2019-04-23T07:40:11.027Z,10108.00
2019-04-23T07:41:03.831Z,10212.00
2019-04-23T07:42:53.080Z,10408.00
2019-04-23T07:44:02.723Z,10496.00
2019-04-23T07:44:57.975Z,10600.00
2019-04-23T07:45:57.334Z,10648.00
2019-04-23T07:47:07.356Z,10712.00
2019-04-23T07:48:03.904Z,10724.00
2019-04-23T07:48:47.739Z,10772.00
2019-04-23T07:50:00.777Z,10852.00
2019-04-23T07:51:55.125Z,11052.00
2019-04-23T07:53:01.872Z,11120.00
2019-04-23T07:54:22.478Z,11132.00
2019-04-23T07:55:02.611Z,11104.00
2019-04-23T07:55:56.439Z,11128.00
2019-04-23T07:57:02.234Z,11144.00
2019-04-23T07:58:04.135Z,11180.00
2019-04-23T07:59:01.387Z,11232.00
2019-04-23T07:59:56.190Z,11256.00
2019-04-23T08:01:05.022Z,11268.00
2019-04-23T08:01:58.152Z,11300.00
2019-04-23T08:03:01.213Z,11312.00
2019-04-23T08:03:55.949Z,11336.00
2019-04-23T08:05:49.535Z,11416.00
2019-04-23T08:06:52.122Z,11480.00
2019-04-23T08:07:55.925Z,11528.00
2019-04-23T08:09:54.663Z,11588.00
2019-04-23T08:11:21.959Z,11632.00
2019-04-23T08:12:15.220Z,11668.00
2019-04-23T08:12:50.660Z,11696.00
2019-04-23T08:15:02.227Z,11768.00
2019-04-23T08:16:02.796Z,11792.00
2019-04-23T08:16:50.308Z,11812.00
2019-04-23T08:17:51.214Z,11828.00
2019-04-23T08:19:57.581Z,11844.00
2019-04-23T08:21:58.254Z,11892.00
2019-04-23T08:22:54.884Z,11920.00
2019-04-23T08:23:55.574Z,11960.00
2019-04-23T08:24:55.404Z,11984.00
2019-04-23T08:26:04.557Z,12012.00
2019-04-23T08:26:53.297Z,12044.00
2019-04-23T08:27:51.778Z,12080.00
2019-04-23T08:29:43.920Z,12116.00
2019-04-23T08:30:52.742Z,12140.00
2019-04-23T08:32:00.627Z,12164.00
2019-04-23T08:32:52.172Z,12184.00
2019-04-23T08:33:56.592Z,12180.00
2019-04-23T08:35:59.068Z,12212.00
2019-04-23T08:37:00.565Z,12216.00
2019-04-23T08:38:02.628Z,12204.00
2019-04-23T08:38:51.087Z,12196.00
2019-04-23T08:39:47.074Z,12176.00
2019-04-23T08:41:02.854Z,12164.00
2019-04-23T08:43:03.486Z,12096.00
2019-04-23T08:44:16.788Z,12076.00
2019-04-23T08:45:05.529Z,12056.00
2019-04-23T08:45:52.515Z,12036.00
2019-04-23T08:47:03.721Z,12012.00
2019-04-23T08:47:59.091Z,11988.00
2019-04-23T08:49:01.218Z,11952.00
2019-04-23T08:50:04.003Z,11912.00
2019-04-23T08:50:50.762Z,11876.00
2019-04-23T08:52:00.183Z,11828.00
2019-04-23T08:52:55.500Z,11780.00
2019-04-23T08:54:13.281Z,11728.00
2019-04-23T08:54:58.055Z,11672.00
2019-04-23T08:55:53.664Z,11620.00
2019-04-23T08:56:55.234Z,11560.00
2019-04-23T08:57:47.038Z,11508.00
2019-04-23T08:58:47.369Z,11452.00
2019-04-23T08:59:53.981Z,11404.00
2019-04-23T09:00:59.160Z,11356.00
2019-04-23T09:02:07.737Z,11308.00
2019-04-23T09:03:14.582Z,11268.00
2019-04-23T09:03:45.924Z,11232.00
2019-04-23T09:04:54.203Z,11188.00
2019-04-23T09:06:00.605Z,11152.00
2019-04-23T09:06:53.108Z,11120.00
2019-04-23T09:08:00.009Z,11084.00
2019-04-23T09:08:49.543Z,11056.00
2019-04-23T09:09:56.878Z,11024.00
2019-04-23T09:11:01.913Z,10992.00
2019-04-23T09:13:00.794Z,10948.00
2019-04-23T09:14:03.955Z,10928.00
2019-04-23T09:14:50.979Z,10920.00
2019-04-23T09:16:56.164Z,10896.00
2019-04-23T09:17:57.878Z,10888.00
2019-04-23T09:18:52.808Z,10888.00
2019-04-23T09:20:15.065Z,10884.00
2019-04-23T09:20:52.450Z,10884.00
2019-04-23T09:22:03.428Z,10872.00
2019-04-23T09:23:01.992Z,10872.00
2019-04-23T09:24:07.316Z,10864.00
2019-04-23T09:25:01.284Z,10848.00
2019-04-23T09:27:03.862Z,10824.00
2019-04-23T09:27:53.198Z,10816.00
2019-04-23T09:28:53.036Z,10808.00
2019-04-23T09:31:00.886Z,10792.00
2019-04-23T09:32:57.171Z,10796.00
2019-04-23T09:34:00.062Z,10792.00
2019-04-23T09:35:08.466Z,10796.00
2019-04-23T09:35:57.422Z,10800.00
2019-04-23T09:37:00.243Z,10792.00
2019-04-23T09:37:54.288Z,10792.00
2019-04-23T09:38:55.966Z,10792.00
2019-04-23T09:40:02.044Z,10800.00
2019-04-23T09:41:04.356Z,10804.00
2019-04-23T09:41:43.588Z,10804.00
2019-04-23T09:42:56.058Z,10812.00
2019-04-23T09:43:58.516Z,10832.00
2019-04-23T09:44:58.459Z,10852.00
2019-04-23T09:45:58.039Z,10884.00
2019-04-23T09:46:53.032Z,10916.00
2019-04-23T09:47:58.732Z,10964.00
2019-04-23T09:48:58.009Z,10996.00
2019-04-23T09:49:56.920Z,11020.00
2019-04-23T09:51:56.277Z,11124.00
2019-04-23T09:53:06.319Z,11192.00
2019-04-23T09:53:50.916Z,11260.00
2019-04-23T09:54:58.111Z,11316.00
2019-04-23T09:55:45.477Z,11404.00
2019-04-23T09:56:52.292Z,11472.00
2019-04-23T09:57:55.501Z,11568.00
2019-04-23T09:58:54.896Z,11660.00
2019-04-23T09:59:55.012Z,11748.00
2019-04-23T10:00:46.983Z,11856.00
2019-04-23T10:01:48.296Z,11956.00
2019-04-23T10:02:41.445Z,12064.00
2019-04-23T10:03:38.543Z,12172.00
2019-04-23T10:04:39.835Z,12260.00
2019-04-23T10:05:33.563Z,12364.00
2019-04-23T10:06:29.048Z,12456.00
2019-04-23T10:07:38.195Z,12524.00
2019-04-23T10:08:34.584Z,12600.00
2019-04-23T10:09:27.418Z,12644.00
2019-04-23T10:10:26.145Z,12672.00
2019-04-23T10:11:24.328Z,12732.00
2019-04-23T10:12:24.293Z,12764.00
2019-04-23T10:13:24.172Z,12792.00
2019-04-23T10:14:24.149Z,12732.00
2019-04-23T10:15:30.303Z,12664.00
2019-04-23T10:16:27.999Z,12588.00
2019-04-23T10:17:26.159Z,12536.00
2019-04-23T10:18:24.427Z,12516.00
2019-04-23T10:19:24.712Z,12516.00
2019-04-23T10:20:24.822Z,12512.00
2019-04-23T10:21:23.896Z,12572.00
2019-04-23T10:22:25.160Z,12632.00
2019-04-23T10:23:27.276Z,12640.00
2019-04-23T10:24:25.221Z,12720.00
2019-04-23T10:25:23.470Z,12724.00
2019-04-23T10:26:24.054Z,12684.00
2019-04-23T10:27:25.058Z,12672.00
2019-04-23T10:28:24.722Z,12684.00
2019-04-23T10:29:23.872Z,12784.00
2019-04-23T10:30:23.779Z,12788.00
2019-04-23T10:31:24.942Z,12800.00
2019-04-23T10:32:23.399Z,12800.00
2019-04-23T10:33:23.620Z,12892.00
2019-04-23T10:34:23.382Z,12916.00
2019-04-23T10:35:35.288Z,13008.00
2019-04-23T10:36:27.693Z,13064.00
2019-04-23T10:37:32.946Z,13036.00
2019-04-23T10:38:26.361Z,13028.00
2019-04-23T10:39:28.095Z,13088.00
2019-04-23T10:40:30.946Z,13140.00
2019-04-23T10:41:25.780Z,13112.00
2019-04-23T10:42:24.698Z,13112.00
2019-04-23T10:43:24.864Z,13128.00
2019-04-23T10:44:23.588Z,13172.00
2019-04-23T10:45:36.882Z,13160.00
2019-04-23T10:46:43.301Z,13108.00
2019-04-23T10:47:58.356Z,13116.00
2019-04-23T10:49:29.496Z,13136.00
2019-04-23T10:49:59.201Z,13176.00
2019-04-23T10:51:55.063Z,13176.00
2019-04-23T10:52:47.245Z,13276.00
2019-04-23T10:53:56.792Z,13244.00
2019-04-23T10:54:45.418Z,13236.00
2019-04-23T10:56:51.692Z,13260.00
2019-04-23T10:57:46.198Z,13288.00
2019-04-23T10:58:45.744Z,13284.00
2019-04-23T10:59:47.342Z,13268.00
2019-04-23T11:00:55.720Z,13200.00
2019-04-23T11:01:55.470Z,13128.00
2019-04-23T11:02:48.968Z,13112.00
2019-04-23T11:05:08.694Z,13132.00
2019-04-23T11:06:49.977Z,13144.00
2019-04-23T11:07:42.556Z,13128.00
2019-04-23T11:08:51.832Z,13104.00
2019-04-23T11:10:50.430Z,13044.00
2019-04-23T11:11:52.445Z,12952.00
2019-04-23T11:12:46.414Z,12908.00
2019-04-23T11:13:53.518Z,12904.00
2019-04-23T11:14:57.907Z,12920.00
2019-04-23T11:16:08.958Z,12964.00
2019-04-23T11:16:56.660Z,13012.00
2019-04-23T11:17:59.607Z,13048.00
2019-04-23T11:18:57.153Z,13060.00
2019-04-23T11:20:01.463Z,13096.00
2019-04-23T11:20:56.412Z,13124.00
2019-04-23T11:23:51.688Z,13196.00
2019-04-23T11:25:04.203Z,13248.00
2019-04-23T11:25:49.192Z,13340.00
2019-04-23T11:26:57.482Z,13424.00
2019-04-23T11:27:53.895Z,13500.00
2019-04-23T11:28:52.090Z,13488.00
2019-04-23T11:30:03.318Z,13536.00
2019-04-23T11:30:45.206Z,13644.00
2019-04-23T11:31:52.302Z,13692.00
2019-04-23T11:33:00.925Z,13732.00
2019-04-23T11:34:11.025Z,13780.00
2019-04-23T11:36:22.415Z,13824.00
2019-04-23T11:38:06.512Z,14272.00
2019-04-23T11:39:50.794Z,14652.00
2019-04-23T11:40:41.805Z,14852.00
2019-04-23T11:41:57.812Z,15032.00
2019-04-23T11:43:01.144Z,15116.00
2019-04-23T11:44:13.225Z,15028.00
2019-04-23T11:44:56.536Z,15172.00
2019-04-23T11:45:53.880Z,15268.00
2019-04-23T11:50:13.932Z,15408.00
2019-04-23T11:52:05.152Z,15692.00
2019-04-23T11:52:56.453Z,15828.00
2019-04-23T11:53:54.366Z,15892.00
2019-04-23T11:54:53.464Z,15556.00
2019-04-23T11:55:58.876Z,15456.00
2019-04-23T11:57:14.985Z,15452.00
2019-04-23T11:58:07.758Z,15452.00
2019-04-23T11:59:19.065Z,15484.00
2019-04-23T12:00:05.938Z,15548.00
2019-04-23T12:01:02.236Z,15604.00
2019-04-23T12:01:52.562Z,15716.00
2019-04-23T12:02:58.841Z,15832.00
2019-04-23T12:04:05.102Z,15852.00
2019-04-23T12:05:00.930Z,15932.00
2019-04-23T12:06:52.447Z,16480.00
2019-04-23T12:07:52.018Z,16736.00
2019-04-23T12:08:50.921Z,16736.00
2019-04-23T12:09:53.821Z,16800.00
2019-04-23T12:11:08.482Z,16896.00
2019-04-23T12:12:49.657Z,17216.00
2019-04-23T12:14:03.884Z,17344.00
2019-04-23T12:14:51.032Z,17472.00
2019-04-23T12:15:53.507Z,17504.00
2019-04-23T12:17:03.244Z,17536.00
2019-04-23T12:19:14.279Z,17632.00
2019-04-23T12:19:57.795Z,17696.00
2019-04-23T12:21:04.214Z,17760.00
2019-04-23T12:21:58.991Z,17856.00
2019-04-23T12:23:04.200Z,18048.00
2019-04-23T12:23:56.636Z,18048.00
2019-04-23T12:25:58.631Z,17952.00
2019-04-23T12:27:01.211Z,18016.00
2019-04-23T12:27:38.985Z,18080.00
2019-04-23T12:28:52.248Z,18080.00
2019-04-23T12:30:08.566Z,18048.00
2019-04-23T12:30:50.774Z,17984.00
2019-04-23T12:32:01.844Z,17856.00
2019-04-23T12:32:53.764Z,17632.00
2019-04-23T12:33:59.487Z,17600.00
2019-04-23T12:35:43.728Z,17504.00
2019-04-23T12:36:58.523Z,17472.00
2019-04-23T12:38:52.416Z,17280.00
2019-04-23T12:39:54.606Z,17184.00
2019-04-23T12:40:51.264Z,17152.00
2019-04-23T12:41:54.562Z,17024.00
2019-04-23T12:43:47.403Z,16896.00
2019-04-23T12:44:56.518Z,16832.00
2019-04-23T12:46:08.823Z,16832.00
2019-04-23T12:46:57.652Z,16864.00
2019-04-23T12:47:59.896Z,16864.00
2019-04-23T12:49:03.973Z,16832.00
2019-04-23T12:51:00.911Z,16832.00
2019-04-23T12:52:51.226Z,16864.00
2019-04-23T12:53:52.498Z,16896.00
2019-04-23T12:55:48.134Z,16800.00
2019-04-23T12:57:52.193Z,16800.00
2019-04-23T12:58:45.190Z,16800.00
2019-04-23T12:59:50.027Z,16736.00
2019-04-23T13:00:48.210Z,16736.00
2019-04-23T13:01:57.465Z,16672.00
2019-04-23T13:02:48.622Z,16544.00
2019-04-23T13:03:45.935Z,16480.00
2019-04-23T13:04:51.821Z,16416.00
2019-04-23T13:06:01.681Z,16320.00
2019-04-23T13:06:50.774Z,16352.00
2019-04-23T13:08:08.636Z,16480.00
2019-04-23T13:09:16.261Z,16544.00
2019-04-23T13:09:55.634Z,16608.00
2019-04-23T13:11:50.008Z,16704.00
2019-04-23T13:13:03.938Z,16768.00
2019-04-23T13:13:51.958Z,16768.00
2019-04-23T13:14:55.981Z,16800.00
2019-04-23T13:15:48.547Z,16896.00
2019-04-23T13:17:05.063Z,16896.00
2019-04-23T13:17:55.598Z,16896.00
2019-04-23T13:18:49.598Z,16928.00
2019-04-23T13:19:53.685Z,17056.00
2019-04-23T13:20:41.934Z,17024.00
2019-04-23T13:21:58.570Z,17088.00
2019-04-23T13:22:58.013Z,17184.00
2019-04-23T13:23:51.259Z,17184.00
2019-04-23T13:24:46.116Z,17184.00
2019-04-23T13:26:44.820Z,17312.00
2019-04-23T13:28:02.778Z,17312.00
2019-04-23T13:28:46.982Z,17312.00
2019-04-23T13:29:56.594Z,17408.00
2019-04-23T13:30:53.133Z,17440.00
2019-04-23T13:31:50.176Z,17408.00
2019-04-23T13:32:52.212Z,17344.00
2019-04-23T13:35:05.631Z,17216.00
2019-04-23T13:36:53.600Z,17280.00
2019-04-23T13:38:02.062Z,17376.00
2019-04-23T13:38:48.134Z,17440.00
2019-04-23T13:39:52.878Z,17344.00
2019-04-23T13:40:57.129Z,17344.00
2019-04-23T13:41:47.741Z,17344.00
2019-04-23T13:42:53.641Z,17376.00
2019-04-23T13:43:47.816Z,17440.00
2019-04-23T13:46:50.472Z,17696.00
2019-04-23T13:48:02.915Z,17760.00
2019-04-23T13:48:46.980Z,17856.00
2019-04-23T13:50:07.825Z,17888.00
2019-04-23T13:51:06.614Z,18016.00
2019-04-23T13:51:46.602Z,18144.00
2019-04-23T13:53:13.078Z,18208.00
2019-04-23T13:53:53.415Z,18336.00
2019-04-23T13:55:06.362Z,18368.00
2019-04-23T13:55:44.412Z,18336.00
2019-04-23T13:57:28.215Z,18432.00
2019-04-23T13:58:51.845Z,18624.00
2019-04-23T13:59:52.280Z,18784.00
2019-04-23T14:01:00.686Z,18816.00
2019-04-23T14:01:57.843Z,18912.00
2019-04-23T14:03:04.070Z,19008.00
2019-04-23T14:04:04.243Z,19040.00
2019-04-23T14:04:54.441Z,19104.00
2019-04-23T14:05:54.622Z,18880.00
2019-04-23T14:06:51.954Z,18976.00
2019-04-23T14:07:56.985Z,19008.00
2019-04-23T14:10:13.570Z,19104.00
2019-04-23T14:10:55.865Z,19072.00
2019-04-23T14:11:47.918Z,19136.00
2019-04-23T14:13:12.463Z,19104.00
2019-04-23T14:14:08.353Z,19104.00
2019-04-23T14:14:58.329Z,19232.00
2019-04-23T14:17:00.118Z,19552.00
2019-04-23T14:18:17.007Z,19680.00
2019-04-23T14:19:53.848Z,19648.00
2019-04-23T14:20:47.237Z,19744.00
2019-04-23T14:21:59.310Z,19872.00
2019-04-23T14:23:00.319Z,20064.00
2019-04-23T14:26:10.945Z,19776.00
2019-04-23T14:26:54.429Z,19840.00
2019-04-23T14:28:01.785Z,20064.00
2019-04-23T14:28:44.679Z,20352.00
2019-04-23T14:29:55.686Z,20640.00
2019-04-23T14:30:54.252Z,20928.00
2019-04-23T14:32:00.126Z,21056.00
2019-04-23T14:32:54.447Z,21312.00
2019-04-23T14:34:05.053Z,21696.00
2019-04-23T14:35:06.044Z,22240.00
2019-04-23T14:37:06.237Z,22688.00
2019-04-23T14:38:09.719Z,22880.00
2019-04-23T14:38:49.711Z,23008.00
2019-04-23T14:39:53.751Z,23264.00
2019-04-23T14:43:04.412Z,23680.00
2019-04-23T14:43:57.786Z,23776.00
2019-04-23T14:45:04.875Z,23840.00
2019-04-23T14:48:00.942Z,24000.00
2019-04-23T14:48:51.799Z,24192.00
2019-04-23T14:50:51.953Z,24480.00
2019-04-23T14:52:57.174Z,24480.00
2019-04-23T14:53:48.164Z,24480.00
2019-04-23T14:55:25.306Z,24512.00
2019-04-23T14:55:56.942Z,24512.00
2019-04-23T14:56:51.440Z,24448.00
2019-04-23T14:58:56.934Z,24224.00